Terminal Aerodrome Forecast
Issued by NWS Bismarck, ND

Home | Current Version | Previous Version | Text Only | Print | Product List | Glossary On
Versions: 1 2 3 4 5 6 7 8 9 10 11 12 13 14 15 16 17 18 19 20 21 22 23 24
924
FTUS43 KBIS 250750 AAC
TAFBIS
TAF AMD
KBIS 250750Z 2508/2606 11010KT P6SM BKN007
     FM251200 14012KT 6SM BR SCT007
     FM251600 14015KT P6SM SCT120
     FM260000 15007KT P6SM BKN120=

USA.gov is the U.S. government's official web portal to all federal, state and local government web resources and services.